富士山静岡空港METAR/TAF(約33km東):

RJNS 220900Z 27016KT 9999 FEW030 07/M06 Q1011

TAF RJNS 220506Z 2206/2312 27014KT 9999 FEW030 TEMPO 2206/2209 27020G30KT TEMPO 2303/2309 26020G30KT

ソアリング用気象予報:
BLIPMAP 中部地方
中部日本航空連盟および大野グライダークラブの支援により運営されているソアリング用気象予報BLIPMAPの中部地方版です。

風向風力(Windy.com):
スマホでの閲覧には、アプリ版Windy(Android/iOS)が適切です。

EGC Icon